Maersk Danang — A8PS5 — position and weather

sailwx.info

Track history (hours):
 
Tides and Currents Weather Stations Pressure Air Temp Water Temp Dewpoint Dewpoint Depression Visibility Wind Speed Wind Dir Waves Ship Positions

Maersk Danang

Last reported at 2017-Sep-08 00:39 UTC. Time now 2017-Sep-23 23:35 UTC.
Position N 29°44' E 122°39'.
Warning: this ship's position is 15 days out of date.

Length 293 m; draft 11.4 m.

Type: Ship. MMSI: 636091595.

Date/timePositionNaut miles runAvg speedWind from/ knotsBaromVisibWave heightAir tempDewpointWater temp
2017-Sep-08 00:39N 29°44' E 122°39'318.0
2017-Sep-08 00:29N 29°42' E 122°36'715.5
2017-Sep-08 00:00N 29°41' E 122°27'815.8
2017-Sep-07 23:31N 29°45' E 122°19'611.5
2017-Sep-07 23:00N 29°48' E 122°14'5 9.0
2017-Sep-07 22:30N 29°50' E 122°09'612.5
2017-Sep-07 22:00N 29°47' E 122°03'2 4.6
2017-Sep-07 21:30N 29°46' E 122°00'0 0.0
2017-Sep-07 21:00N 29°46' E 122°00'0 0.0
2017-Sep-07 20:30N 29°46' E 122°00'0 0.0
2017-Sep-07 19:24N 29°46' E 122°00'0 0.0
2017-Sep-07 18:45N 29°46' E 122°00'0 0.0
2017-Sep-07 18:27N 29°46' E 122°00'0 0.0
2017-Sep-07 18:00N 29°46' E 122°00'0 0.0
2017-Sep-07 17:24N 29°46' E 122°00'0 0.0
2017-Sep-07 16:54N 29°46' E 122°00'0 0.0
2017-Sep-07 16:30N 29°46' E 122°00'0 0.0
2017-Sep-07 15:57N 29°46' E 122°00'0 0.0
2017-Sep-07 15:30N 29°46' E 122°00'0 0.0
2017-Sep-07 14:51N 29°46' E 122°00'0 0.0
2017-Sep-07 14:30N 29°46' E 122°00'0 0.0
2017-Sep-07 13:57N 29°46' E 122°00'0 0.0
2017-Sep-07 13:30N 29°46' E 122°00'0 0.0
2017-Sep-07 12:54N 29°46' E 122°00'0 0.0
2017-Sep-07 12:21N 29°46' E 122°00'0 0.0
2017-Sep-07 11:06N 29°46' E 122°00'0 0.0
2017-Sep-07 10:57N 29°46' E 122°00'0 0.0
2017-Sep-07 10:30N 29°46' E 122°00'0 0.0
2017-Sep-07 09:57N 29°46' E 122°00'0 0.0
2017-Sep-07 09:30N 29°46' E 122°00'0 0.0
2017-Sep-07 09:00N 29°46' E 122°00'0 0.1
2017-Sep-07 08:30N 29°46' E 122°00'2 3.0
2017-Sep-07 07:57N 29°47' E 122°02'4 9.9
2017-Sep-07 07:30N 29°48' E 122°07'612.0
2017-Sep-07 07:00N 29°44' E 122°12'713.0
2017-Sep-07 06:30N 29°42' E 122°19'510.6
2017-Sep-07 06:00N 29°41' E 122°25'611.9
2017-Sep-07 05:29N 29°41' E 122°32'711.9
2017-Sep-07 04:55N 29°42' E 122°40'510.8
2017-Sep-07 04:28N 29°43' E 122°45'2 2.1
2017-Sep-07 03:39N 29°43' E 122°43'1 8.1
2017-Sep-07 03:30N 29°44' E 122°42'5 9.9
2017-Sep-07 03:00N 29°49' E 122°42'713.1
2017-Sep-07 02:30N 29°54' E 122°47'1213.7
2017-Sep-07 01:39N 30°03' E 122°55'1513.1
2017-Sep-07 00:31N 30°18' E 122°54'114.6
2017-Sep-07 00:26N 30°19' E 122°53'46 1.4
2017-Sep-05 16:55N 31°04' E 122°56'510.7
2017-Sep-05 16:29N 31°09' E 122°57'510.9
2017-Sep-05 16:00N 31°14' E 122°58'510.5
2017-Sep-05 15:30N 31°19' E 122°58'5 9.9
2017-Sep-05 15:00N 31°24' E 122°56'5 9.7
2017-Sep-05 14:30N 31°29' E 122°56'510.2
2017-Sep-05 13:59N 31°34' E 122°58'5 9.6
2017-Sep-05 13:30N 31°38' E 122°56'510.6
2017-Sep-05 13:00N 31°44' E 122°57'611.3
2017-Sep-05 12:29N 31°49' E 122°57'611.7
2017-Sep-05 12:00N 31°55' E 122°57'612.0
2017-Sep-05 11:30N 32°01' E 122°56'612.7
2017-Sep-05 11:00N 32°07' E 122°56'713.4
2017-Sep-05 10:30N 32°14' E 122°56'713.6
2017-Sep-05 10:00N 32°21' E 122°56'713.5
2017-Sep-05 09:30N 32°28' E 122°57'38711.3
2017-Sep-03 23:08N 38°35' E 120°28'312.7
2017-Sep-03 22:55N 38°35' E 120°25'  
2017-Aug-30 02:17N 33°49' E 126°60'1211.8
2017-Aug-30 01:14N 33°50' E 127°14'711.5
2017-Aug-30 00:39N 33°51' E 127°23'  
Track history (hours):
 
Tides and Currents Weather Stations Pressure Air Temp Water Temp Dewpoint Dewpoint Depression Visibility Wind Speed Wind Dir Waves Ship Positions

Maersk Danang

Last reported at 2017-Sep-08 00:39 UTC. Time now 2017-Sep-23 23:35 UTC.
Position N 29°44' E 122°39'.
Warning: this ship's position is 15 days out of date.

Length 293 m; draft 11.4 m.

Type: Ship. MMSI: 636091595.

Date/timePositionNaut miles runAvg speedWind from/ knotsBaromVisibWave heightAir tempDewpointWater temp
2017-Sep-08 00:39N 29°44' E 122°39'318.0
2017-Sep-08 00:29N 29°42' E 122°36'715.5
2017-Sep-08 00:00N 29°41' E 122°27'815.8
2017-Sep-07 23:31N 29°45' E 122°19'611.5
2017-Sep-07 23:00N 29°48' E 122°14'5 9.0
2017-Sep-07 22:30N 29°50' E 122°09'612.5
2017-Sep-07 22:00N 29°47' E 122°03'2 4.6
2017-Sep-07 21:30N 29°46' E 122°00'0 0.0
2017-Sep-07 21:00N 29°46' E 122°00'0 0.0
2017-Sep-07 20:30N 29°46' E 122°00'0 0.0
2017-Sep-07 19:24N 29°46' E 122°00'0 0.0
2017-Sep-07 18:45N 29°46' E 122°00'0 0.0
2017-Sep-07 18:27N 29°46' E 122°00'0 0.0
2017-Sep-07 18:00N 29°46' E 122°00'0 0.0
2017-Sep-07 17:24N 29°46' E 122°00'0 0.0
2017-Sep-07 16:54N 29°46' E 122°00'0 0.0
2017-Sep-07 16:30N 29°46' E 122°00'0 0.0
2017-Sep-07 15:57N 29°46' E 122°00'0 0.0
2017-Sep-07 15:30N 29°46' E 122°00'0 0.0
2017-Sep-07 14:51N 29°46' E 122°00'0 0.0
2017-Sep-07 14:30N 29°46' E 122°00'0 0.0
2017-Sep-07 13:57N 29°46' E 122°00'0 0.0
2017-Sep-07 13:30N 29°46' E 122°00'0 0.0
2017-Sep-07 12:54N 29°46' E 122°00'0 0.0
2017-Sep-07 12:21N 29°46' E 122°00'0 0.0
2017-Sep-07 11:06N 29°46' E 122°00'0 0.0
2017-Sep-07 10:57N 29°46' E 122°00'0 0.0
2017-Sep-07 10:30N 29°46' E 122°00'0 0.0
2017-Sep-07 09:57N 29°46' E 122°00'0 0.0
2017-Sep-07 09:30N 29°46' E 122°00'0 0.0
2017-Sep-07 09:00N 29°46' E 122°00'0 0.1
2017-Sep-07 08:30N 29°46' E 122°00'2 3.0
2017-Sep-07 07:57N 29°47' E 122°02'4 9.9
2017-Sep-07 07:30N 29°48' E 122°07'612.0
2017-Sep-07 07:00N 29°44' E 122°12'713.0
2017-Sep-07 06:30N 29°42' E 122°19'510.6
2017-Sep-07 06:00N 29°41' E 122°25'611.9
2017-Sep-07 05:29N 29°41' E 122°32'711.9
2017-Sep-07 04:55N 29°42' E 122°40'510.8
2017-Sep-07 04:28N 29°43' E 122°45'2 2.1
2017-Sep-07 03:39N 29°43' E 122°43'1 8.1
2017-Sep-07 03:30N 29°44' E 122°42'5 9.9
2017-Sep-07 03:00N 29°49' E 122°42'713.1
2017-Sep-07 02:30N 29°54' E 122°47'1213.7
2017-Sep-07 01:39N 30°03' E 122°55'1513.1
2017-Sep-07 00:31N 30°18' E 122°54'114.6
2017-Sep-07 00:26N 30°19' E 122°53'46 1.4
2017-Sep-05 16:55N 31°04' E 122°56'510.7
2017-Sep-05 16:29N 31°09' E 122°57'510.9
2017-Sep-05 16:00N 31°14' E 122°58'510.5
2017-Sep-05 15:30N 31°19' E 122°58'5 9.9
2017-Sep-05 15:00N 31°24' E 122°56'5 9.7
2017-Sep-05 14:30N 31°29' E 122°56'510.2
2017-Sep-05 13:59N 31°34' E 122°58'5 9.6
2017-Sep-05 13:30N 31°38' E 122°56'510.6
2017-Sep-05 13:00N 31°44' E 122°57'611.3
2017-Sep-05 12:29N 31°49' E 122°57'611.7
2017-Sep-05 12:00N 31°55' E 122°57'612.0
2017-Sep-05 11:30N 32°01' E 122°56'612.7
2017-Sep-05 11:00N 32°07' E 122°56'713.4
2017-Sep-05 10:30N 32°14' E 122°56'713.6
2017-Sep-05 10:00N 32°21' E 122°56'713.5
2017-Sep-05 09:30N 32°28' E 122°57'38711.3
2017-Sep-03 23:08N 38°35' E 120°28'312.7
2017-Sep-03 22:55N 38°35' E 120°25'  
2017-Aug-30 02:17N 33°49' E 126°60'1211.8
2017-Aug-30 01:14N 33°50' E 127°14'711.5
2017-Aug-30 00:39N 33°51' E 127°23'  

Dump ship's entire track history